createdAt,value
2023-04-11T00:01:30.087Z,4.69
2023-04-11T00:03:59.428Z,4.64
2023-04-11T00:06:27.820Z,4.59
2023-04-11T00:08:57.038Z,4.58
2023-04-11T00:11:25.398Z,4.58
2023-04-11T00:13:58.886Z,4.58
2023-04-11T00:16:26.925Z,4.60
2023-04-11T00:18:57.334Z,4.62
2023-04-11T00:21:25.525Z,4.60
2023-04-11T00:23:54.280Z,4.59
2023-04-11T00:26:22.226Z,4.64
2023-04-11T00:28:50.293Z,4.68
2023-04-11T00:31:18.416Z,4.68
2023-04-11T00:33:46.286Z,4.67
2023-04-11T00:36:14.367Z,4.65
2023-04-11T00:38:42.424Z,4.61
2023-04-11T00:41:11.137Z,4.57
2023-04-11T00:43:39.084Z,4.59
2023-04-11T00:46:09.439Z,4.56
2023-04-11T00:48:37.596Z,4.53
2023-04-11T00:51:05.677Z,4.50
2023-04-11T00:53:35.327Z,4.44
2023-04-11T00:56:03.270Z,4.37
2023-04-11T00:58:32.159Z,4.34
2023-04-11T01:01:00.789Z,4.35
2023-04-11T01:03:29.258Z,4.35
2023-04-11T01:05:57.542Z,4.36
2023-04-11T01:08:26.520Z,4.36
2023-04-11T01:10:54.543Z,4.33
2023-04-11T01:13:22.665Z,4.31
2023-04-11T01:15:50.508Z,4.27
2023-04-11T01:18:18.597Z,4.23
2023-04-11T01:20:46.942Z,4.21
2023-04-11T01:23:21.526Z,4.13
2023-04-11T01:25:50.403Z,4.15
2023-04-11T01:28:19.543Z,4.15
2023-04-11T01:30:47.934Z,4.13
2023-04-11T01:33:16.729Z,4.14
2023-04-11T01:35:44.712Z,4.11
2023-04-11T01:38:12.753Z,4.11
2023-04-11T01:40:41.749Z,4.13
2023-04-11T01:43:10.035Z,4.09
2023-04-11T01:45:38.820Z,3.98
2023-04-11T01:48:08.567Z,3.93
2023-04-11T01:50:36.661Z,3.94
2023-04-11T01:53:05.811Z,3.89
2023-04-11T01:55:34.043Z,3.90
2023-04-11T01:58:01.994Z,3.89
2023-04-11T02:00:29.931Z,3.87
2023-04-11T02:02:58.069Z,3.89
2023-04-11T02:05:26.267Z,3.87
2023-04-11T02:07:56.981Z,3.84
2023-04-11T02:10:24.905Z,3.77
2023-04-11T02:12:52.860Z,3.76
2023-04-11T02:15:21.039Z,3.73
2023-04-11T02:17:49.558Z,3.68
2023-04-11T02:20:17.524Z,3.63
2023-04-11T02:22:45.781Z,3.62
2023-04-11T02:25:16.756Z,3.68
2023-04-11T02:27:44.688Z,3.71
2023-04-11T02:30:12.678Z,3.77
2023-04-11T02:32:40.818Z,3.82
2023-04-11T02:35:09.033Z,3.91
2023-04-11T02:37:37.488Z,3.90
2023-04-11T02:40:06.337Z,3.93
2023-04-11T02:42:34.405Z,3.94
2023-04-11T02:45:02.750Z,3.94
2023-04-11T02:47:30.670Z,3.91
2023-04-11T02:50:02.668Z,3.92
2023-04-11T02:52:34.841Z,3.90
2023-04-11T02:55:03.034Z,3.87
2023-04-11T02:57:31.264Z,3.89
2023-04-11T02:59:59.775Z,3.96
2023-04-11T03:02:36.196Z,4.03
2023-04-11T03:05:04.589Z,4.04
2023-04-11T03:07:34.613Z,3.98
2023-04-11T03:10:02.486Z,3.90
2023-04-11T03:12:30.488Z,3.89
2023-04-11T03:15:00.589Z,3.84
2023-04-11T03:17:29.140Z,3.76
2023-04-11T03:19:57.532Z,3.74
2023-04-11T03:22:26.018Z,3.74
2023-04-11T03:24:53.937Z,3.75
2023-04-11T03:27:23.000Z,3.76
2023-04-11T03:29:53.824Z,3.79
2023-04-11T03:32:34.421Z,3.84
2023-04-11T03:35:02.353Z,3.87
2023-04-11T03:37:30.539Z,3.88
2023-04-11T03:39:58.381Z,3.93
2023-04-11T03:42:26.498Z,4.04
2023-04-11T03:44:58.020Z,4.13
2023-04-11T03:47:26.378Z,4.15
2023-04-11T03:49:54.833Z,4.12
2023-04-11T03:52:23.311Z,4.10
2023-04-11T03:54:51.975Z,4.11
2023-04-11T03:57:20.235Z,4.11
2023-04-11T03:59:48.180Z,4.11
2023-04-11T04:02:16.536Z,4.14
2023-04-11T04:04:58.797Z,4.18
2023-04-11T04:07:30.217Z,4.24
2023-04-11T04:10:07.462Z,4.29
2023-04-11T04:12:36.869Z,4.34
2023-04-11T04:15:21.581Z,4.41
2023-04-11T04:17:51.561Z,4.47
2023-04-11T04:20:26.767Z,4.52
2023-04-11T04:22:58.116Z,4.56
2023-04-11T04:25:34.548Z,4.59
2023-04-11T04:28:03.282Z,4.63
2023-04-11T04:30:38.250Z,4.80
2023-04-11T04:33:12.577Z,4.96
2023-04-11T04:35:45.055Z,5.08
2023-04-11T04:38:18.108Z,5.18
2023-04-11T04:40:57.335Z,5.29
2023-04-11T04:43:27.356Z,5.41
2023-04-11T04:46:02.686Z,5.56
2023-04-11T04:48:36.763Z,5.67
2023-04-11T04:51:05.696Z,5.78
2023-04-11T04:53:38.875Z,5.90
2023-04-11T04:56:08.407Z,5.99
2023-04-11T04:58:41.565Z,6.15
2023-04-11T05:01:12.456Z,6.29
2023-04-11T05:03:40.531Z,6.45
2023-04-11T05:06:13.770Z,6.58
2023-04-11T05:08:44.284Z,6.68
2023-04-11T05:11:12.691Z,6.80
2023-04-11T05:13:40.602Z,6.89
2023-04-11T05:16:09.180Z,6.99
2023-04-11T05:18:37.090Z,7.05
2023-04-11T05:21:05.438Z,7.15
2023-04-11T05:23:39.427Z,7.27
2023-04-11T05:26:08.540Z,7.37
2023-04-11T05:28:37.545Z,7.48
2023-04-11T05:31:12.255Z,7.58
2023-04-11T05:33:42.156Z,7.69
2023-04-11T05:36:14.555Z,7.81
2023-04-11T05:38:44.295Z,7.91
2023-04-11T05:41:13.139Z,8.02
2023-04-11T05:43:41.109Z,8.11
2023-04-11T05:46:10.100Z,8.16
2023-04-11T05:48:38.576Z,8.30
2023-04-11T05:51:07.876Z,8.41
2023-04-11T05:53:36.096Z,8.51
2023-04-11T05:56:06.822Z,8.60
2023-04-11T05:58:36.513Z,8.64
2023-04-11T06:01:05.247Z,8.76
2023-04-11T06:03:33.242Z,8.88
2023-04-11T06:06:01.268Z,8.99
2023-04-11T06:08:29.373Z,9.06
2023-04-11T06:10:57.231Z,9.20
2023-04-11T06:13:26.149Z,9.32
2023-04-11T06:15:54.122Z,9.46
2023-04-11T06:18:21.953Z,9.62
2023-04-11T06:20:49.953Z,9.69
2023-04-11T06:23:17.874Z,9.72
2023-04-11T06:25:46.155Z,9.78
2023-04-11T06:28:14.282Z,9.88
2023-04-11T06:30:42.175Z,9.99
2023-04-11T06:33:10.134Z,10.06
2023-04-11T06:35:38.150Z,10.16
2023-04-11T06:38:06.008Z,10.29
2023-04-11T06:40:34.066Z,10.39
2023-04-11T06:43:01.944Z,10.47
2023-04-11T06:45:29.842Z,10.54
2023-04-11T06:47:57.703Z,10.62
2023-04-11T06:50:25.620Z,10.72
2023-04-11T06:52:53.661Z,10.82
2023-04-11T06:55:23.113Z,10.89
2023-04-11T06:57:51.187Z,11.00
2023-04-11T07:00:19.984Z,11.10
2023-04-11T07:02:48.035Z,11.11
2023-04-11T07:05:16.465Z,11.16
2023-04-11T07:07:44.321Z,11.26
2023-04-11T07:10:12.434Z,11.36
2023-04-11T07:12:40.498Z,11.45
2023-04-11T07:15:09.354Z,11.55
2023-04-11T07:17:37.216Z,11.63
2023-04-11T07:20:08.922Z,11.73
2023-04-11T07:22:37.219Z,11.82
2023-04-11T07:25:05.376Z,11.90
2023-04-11T07:27:33.570Z,11.96
2023-04-11T07:30:01.562Z,12.03
2023-04-11T07:32:29.470Z,12.12
2023-04-11T07:34:57.292Z,12.22
2023-04-11T07:37:27.098Z,12.29
2023-04-11T07:39:54.973Z,12.37
2023-04-11T07:42:22.829Z,12.43
2023-04-11T07:44:51.108Z,12.49
2023-04-11T07:47:18.984Z,12.58
2023-04-11T07:49:46.779Z,12.64
2023-04-11T07:52:14.669Z,12.73
2023-04-11T07:54:42.612Z,12.83
2023-04-11T07:57:10.393Z,12.93
2023-04-11T07:59:38.198Z,13.02
2023-04-11T08:02:08.224Z,13.02
2023-04-11T08:04:37.831Z,13.04
2023-04-11T08:07:06.946Z,13.08
2023-04-11T08:09:34.860Z,13.07
2023-04-11T08:12:03.560Z,13.13
2023-04-11T08:14:31.413Z,13.12
2023-04-11T08:16:59.726Z,13.15
2023-04-11T08:19:27.667Z,13.22
2023-04-11T08:21:55.504Z,13.30
2023-04-11T08:24:23.297Z,13.39
2023-04-11T08:26:51.124Z,13.48
2023-04-11T08:29:18.955Z,13.57
2023-04-11T08:31:46.928Z,13.63
2023-04-11T08:34:14.867Z,13.71
2023-04-11T08:36:42.735Z,13.81
2023-04-11T08:39:11.967Z,13.90
2023-04-11T08:41:40.131Z,13.96
2023-04-11T08:44:12.500Z,14.06
2023-04-11T08:46:42.556Z,14.14
2023-04-11T08:49:11.220Z,14.20
2023-04-11T08:51:43.502Z,14.26
2023-04-11T08:54:12.260Z,14.36
2023-04-11T08:56:43.149Z,14.40
2023-04-11T08:59:11.128Z,14.35
2023-04-11T09:01:40.901Z,14.41
2023-04-11T09:04:10.700Z,14.48
2023-04-11T09:06:40.332Z,14.53
2023-04-11T09:09:08.825Z,14.52
2023-04-11T09:11:53.700Z,14.51
2023-04-11T09:14:26.130Z,14.57
2023-04-11T09:17:04.887Z,14.66
2023-04-11T09:19:34.747Z,14.69
2023-04-11T09:22:06.196Z,14.73
2023-04-11T09:24:35.985Z,14.79
2023-04-11T09:27:16.726Z,14.87
2023-04-11T09:29:46.620Z,15.01
2023-04-11T09:32:34.173Z,15.20
2023-04-11T09:35:20.692Z,15.28
2023-04-11T09:37:51.058Z,15.31
2023-04-11T09:40:21.346Z,15.40
2023-04-11T09:42:56.420Z,15.49
2023-04-11T09:45:25.654Z,15.61
2023-04-11T09:47:59.489Z,15.77
2023-04-11T09:50:28.399Z,15.91
2023-04-11T09:52:58.942Z,15.92
2023-04-11T09:55:27.443Z,15.89
2023-04-11T09:57:55.394Z,15.93
2023-04-11T10:00:32.374Z,15.98
2023-04-11T10:03:00.484Z,16.10
2023-04-11T10:05:30.625Z,16.28
2023-04-11T10:08:22.386Z,16.45
2023-04-11T10:10:52.925Z,16.55
2023-04-11T10:13:38.689Z,16.56
2023-04-11T10:16:18.798Z,16.60
2023-04-11T10:18:52.932Z,16.61
2023-04-11T10:21:41.060Z,16.56
2023-04-11T10:24:14.164Z,16.55
2023-04-11T10:26:55.267Z,16.58
2023-04-11T10:29:33.350Z,16.58
2023-04-11T10:32:12.275Z,16.46
2023-04-11T10:35:00.069Z,16.37
2023-04-11T10:37:32.941Z,16.39
2023-04-11T10:40:00.996Z,16.42
2023-04-11T10:42:33.774Z,16.44
2023-04-11T10:45:27.692Z,16.39
2023-04-11T10:47:58.777Z,16.13
2023-04-11T10:50:26.835Z,15.88
2023-04-11T10:52:59.098Z,15.64
2023-04-11T10:55:28.979Z,15.37
2023-04-11T10:58:08.347Z,15.13
2023-04-11T11:00:51.993Z,14.77
2023-04-11T11:03:31.756Z,14.40
2023-04-11T11:05:59.845Z,13.93
2023-04-11T11:08:33.167Z,13.42
2023-04-11T11:11:01.975Z,13.07
2023-04-11T11:13:44.436Z,12.65
2023-04-11T11:16:18.196Z,12.47
2023-04-11T11:18:49.146Z,12.31
2023-04-11T11:21:26.753Z,12.13
2023-04-11T11:24:01.057Z,12.02
2023-04-11T11:26:39.974Z,11.86
2023-04-11T11:29:09.126Z,11.79
2023-04-11T11:31:47.835Z,11.77
2023-04-11T11:34:30.113Z,11.69
2023-04-11T11:36:59.722Z,11.67
2023-04-11T11:39:29.171Z,11.74
2023-04-11T11:41:58.167Z,11.59
2023-04-11T11:44:28.974Z,11.62
2023-04-11T11:47:15.401Z,11.61
2023-04-11T11:49:54.206Z,11.55
2023-04-11T11:52:34.153Z,11.51
2023-04-11T11:55:06.851Z,11.43
2023-04-11T11:57:49.822Z,11.36
2023-04-11T12:00:38.019Z,11.25
2023-04-11T12:03:10.289Z,11.20
2023-04-11T12:05:38.710Z,11.18
2023-04-11T12:08:07.875Z,11.13
2023-04-11T12:10:50.266Z,11.09
2023-04-11T12:13:22.473Z,11.04
2023-04-11T12:16:00.524Z,10.99
2023-04-11T12:18:28.849Z,10.95
2023-04-11T12:20:56.672Z,10.83
2023-04-11T12:23:24.751Z,10.75
2023-04-11T12:25:52.585Z,10.77
2023-04-11T12:28:20.624Z,10.76
2023-04-11T12:30:48.594Z,10.71
2023-04-11T12:33:16.585Z,10.67
2023-04-11T12:35:44.609Z,10.62
2023-04-11T12:38:14.983Z,10.58
2023-04-11T12:40:46.362Z,10.58
2023-04-11T12:43:14.315Z,10.55
2023-04-11T12:45:42.230Z,10.49
2023-04-11T12:48:10.528Z,10.43
2023-04-11T12:50:38.591Z,10.38
2023-04-11T12:53:06.497Z,10.31
2023-04-11T12:55:37.297Z,10.23
2023-04-11T12:58:05.176Z,10.06
2023-04-11T13:00:33.067Z,10.08
2023-04-11T13:03:01.188Z,10.07
2023-04-11T13:05:30.165Z,10.03
2023-04-11T13:07:58.048Z,9.89
2023-04-11T13:10:26.280Z,9.71
2023-04-11T13:12:58.633Z,9.61
2023-04-11T13:15:28.744Z,9.42
2023-04-11T13:17:56.610Z,9.42
2023-04-11T13:20:24.496Z,9.39
2023-04-11T13:22:52.368Z,9.31
2023-04-11T13:25:20.398Z,9.33
2023-04-11T13:27:48.484Z,9.38
2023-04-11T13:30:16.392Z,9.37
2023-04-11T13:32:44.358Z,9.43
2023-04-11T13:35:12.218Z,9.45
2023-04-11T13:37:40.112Z,9.38
2023-04-11T13:40:08.775Z,9.30
2023-04-11T13:42:36.696Z,9.30
2023-04-11T13:45:04.886Z,9.34
2023-04-11T13:47:36.029Z,9.28
2023-04-11T13:50:08.243Z,9.25
2023-04-11T13:52:36.215Z,9.27
2023-04-11T13:55:04.394Z,9.27
2023-04-11T13:57:32.285Z,9.30
2023-04-11T14:00:00.127Z,9.39
2023-04-11T14:02:28.137Z,9.40
2023-04-11T14:04:56.392Z,9.40
2023-04-11T14:07:24.422Z,9.46
2023-04-11T14:09:52.369Z,9.47
2023-04-11T14:12:20.232Z,9.53
2023-04-11T14:14:48.147Z,9.59
2023-04-11T14:17:16.159Z,9.61
2023-04-11T14:19:44.109Z,9.61
2023-04-11T14:22:12.109Z,9.72
2023-04-11T14:24:40.020Z,9.71
2023-04-11T14:27:08.659Z,9.84
2023-04-11T14:29:37.694Z,9.81
2023-04-11T14:32:07.402Z,9.82
2023-04-11T14:34:35.349Z,9.79
2023-04-11T14:37:03.542Z,9.85
2023-04-11T14:39:31.924Z,9.88
2023-04-11T14:42:02.080Z,9.89
2023-04-11T14:44:30.508Z,9.91
2023-04-11T14:46:58.456Z,9.89
2023-04-11T14:49:26.342Z,9.89
2023-04-11T14:51:54.277Z,9.93
2023-04-11T14:54:24.187Z,10.02
2023-04-11T14:56:52.496Z,10.04
2023-04-11T14:59:21.016Z,10.07
2023-04-11T15:01:49.330Z,10.14
2023-04-11T15:04:17.658Z,10.19
2023-04-11T15:06:45.770Z,10.20
2023-04-11T15:09:13.784Z,10.18
2023-04-11T15:11:41.649Z,10.17
2023-04-11T15:14:09.515Z,10.11
2023-04-11T15:16:37.447Z,10.01
2023-04-11T15:19:05.685Z,9.93
2023-04-11T15:21:33.484Z,9.93
2023-04-11T15:24:06.571Z,9.86
2023-04-11T15:26:34.592Z,9.93
2023-04-11T15:29:02.534Z,9.97
2023-04-11T15:31:30.767Z,10.02
2023-04-11T15:34:01.504Z,10.08
2023-04-11T15:36:29.851Z,10.15
2023-04-11T15:38:58.049Z,10.22
2023-04-11T15:41:26.204Z,10.31
2023-04-11T15:43:54.035Z,10.30
2023-04-11T15:46:21.913Z,10.30
2023-04-11T15:48:49.769Z,10.32
2023-04-11T15:51:17.613Z,10.45
2023-04-11T15:53:45.490Z,10.58
2023-04-11T15:56:13.643Z,10.67
2023-04-11T15:58:42.279Z,10.76
2023-04-11T16:01:25.855Z,10.80
2023-04-11T16:03:54.478Z,10.73
2023-04-11T16:06:22.575Z,10.75
2023-04-11T16:08:51.067Z,10.83
2023-04-11T16:11:18.999Z,10.96
2023-04-11T16:13:46.927Z,11.05
2023-04-11T16:16:14.949Z,11.03
2023-04-11T16:18:42.973Z,10.99
2023-04-11T16:21:15.905Z,10.99
2023-04-11T16:23:43.956Z,10.99
2023-04-11T16:26:12.231Z,11.05
2023-04-11T16:28:40.815Z,11.12
2023-04-11T16:31:09.584Z,11.11
2023-04-11T16:33:37.490Z,11.03
2023-04-11T16:36:06.402Z,10.86
2023-04-11T16:38:34.777Z,10.69
2023-04-11T16:41:03.597Z,10.50
2023-04-11T16:43:31.869Z,10.32
2023-04-11T16:45:59.922Z,10.26
2023-04-11T16:48:28.289Z,10.20
2023-04-11T16:50:56.247Z,10.09
2023-04-11T16:53:24.343Z,9.93
2023-04-11T16:55:53.706Z,9.82
2023-04-11T16:58:21.733Z,9.79
2023-04-11T17:00:51.280Z,9.72
2023-04-11T17:03:20.123Z,9.64
2023-04-11T17:05:49.060Z,9.58
2023-04-11T17:08:17.961Z,9.51
2023-04-11T17:10:45.786Z,9.44
2023-04-11T17:13:14.920Z,9.33
2023-04-11T17:15:43.234Z,9.19
2023-04-11T17:18:15.117Z,9.08
2023-04-11T17:20:43.763Z,8.97
2023-04-11T17:23:12.440Z,8.93
2023-04-11T17:25:40.742Z,8.90
2023-04-11T17:28:08.816Z,8.84
2023-04-11T17:30:37.859Z,8.78
2023-04-11T17:33:06.323Z,8.73
2023-04-11T17:35:34.695Z,8.65
2023-04-11T17:38:02.960Z,8.59
2023-04-11T17:40:31.545Z,8.52
2023-04-11T17:42:59.675Z,8.42
2023-04-11T17:45:28.283Z,8.35
2023-04-11T17:47:56.474Z,8.24
2023-04-11T17:50:24.589Z,8.21
2023-04-11T17:52:53.219Z,8.14
2023-04-11T17:55:21.808Z,8.10
2023-04-11T17:57:51.721Z,8.08
2023-04-11T18:00:23.215Z,8.05
2023-04-11T18:02:57.829Z,8.01
2023-04-11T18:05:29.551Z,8.00
2023-04-11T18:07:59.637Z,8.01
2023-04-11T18:10:30.728Z,8.00
2023-04-11T18:12:59.030Z,7.95
2023-04-11T18:15:28.067Z,7.93
2023-04-11T18:17:56.656Z,7.92
2023-04-11T18:20:24.910Z,7.90
2023-04-11T18:22:57.484Z,7.91
2023-04-11T18:25:25.703Z,7.94
2023-04-11T18:27:54.048Z,7.94
2023-04-11T18:30:22.205Z,7.99
2023-04-11T18:32:54.035Z,7.98
2023-04-11T18:35:23.703Z,7.97
2023-04-11T18:37:52.053Z,7.97
2023-04-11T18:40:20.607Z,7.96
2023-04-11T18:42:53.195Z,7.96
2023-04-11T18:45:22.465Z,7.91
2023-04-11T18:47:51.208Z,7.85
2023-04-11T18:50:20.097Z,7.84
2023-04-11T18:52:52.550Z,7.81
2023-04-11T18:55:24.601Z,7.76
2023-04-11T18:57:56.021Z,7.74
2023-04-11T19:00:26.146Z,7.72
2023-04-11T19:02:54.299Z,7.70
2023-04-11T19:05:25.485Z,7.64
2023-04-11T19:07:54.263Z,7.59
2023-04-11T19:10:23.059Z,7.55
2023-04-11T19:12:51.287Z,7.52
2023-04-11T19:15:19.747Z,7.43
2023-04-11T19:17:48.201Z,7.42
2023-04-11T19:20:16.753Z,7.38
2023-04-11T19:22:46.434Z,7.37
2023-04-11T19:25:14.864Z,7.34
2023-04-11T19:27:43.405Z,7.34
2023-04-11T19:30:14.038Z,7.31
2023-04-11T19:32:44.183Z,7.22
2023-04-11T19:35:14.176Z,7.22
2023-04-11T19:37:42.845Z,7.19
2023-04-11T19:40:11.504Z,7.13
2023-04-11T19:42:40.409Z,7.15
2023-04-11T19:45:10.704Z,7.10
2023-04-11T19:47:42.018Z,7.07
2023-04-11T19:50:14.899Z,7.05
2023-04-11T19:52:43.617Z,7.04
2023-04-11T19:55:12.688Z,7.00
2023-04-11T19:57:43.622Z,7.02
2023-04-11T20:00:14.485Z,7.03
2023-04-11T20:02:46.058Z,7.00
2023-04-11T20:05:19.294Z,7.02
2023-04-11T20:07:48.166Z,6.98
2023-04-11T20:10:16.740Z,7.00
2023-04-11T20:12:45.106Z,6.96
2023-04-11T20:15:13.167Z,6.96
2023-04-11T20:17:41.815Z,6.96
2023-04-11T20:20:12.390Z,7.01
2023-04-11T20:22:40.498Z,7.02
2023-04-11T20:25:11.912Z,6.98
2023-04-11T20:27:41.029Z,7.02
2023-04-11T20:30:12.598Z,7.02
2023-04-11T20:32:41.468Z,7.03
2023-04-11T20:35:12.267Z,6.99
2023-04-11T20:37:43.763Z,6.96
2023-04-11T20:40:14.520Z,6.95
2023-04-11T20:42:45.875Z,6.93
2023-04-11T20:45:20.706Z,6.90
2023-04-11T20:47:50.410Z,6.87
2023-04-11T20:50:19.534Z,6.84
2023-04-11T20:52:52.635Z,6.85
2023-04-11T20:55:21.067Z,6.81
2023-04-11T20:57:49.241Z,6.78
2023-04-11T21:00:18.490Z,6.79
2023-04-11T21:02:50.209Z,6.77
2023-04-11T21:05:25.082Z,6.72
2023-04-11T21:07:54.579Z,6.70
2023-04-11T21:10:22.754Z,6.67
2023-04-11T21:12:54.350Z,6.64
2023-04-11T21:15:22.884Z,6.63
2023-04-11T21:17:52.383Z,6.59
2023-04-11T21:20:22.317Z,6.58
2023-04-11T21:22:55.350Z,6.58
2023-04-11T21:25:24.168Z,6.55
2023-04-11T21:27:52.217Z,6.47
2023-04-11T21:30:20.452Z,6.43
2023-04-11T21:32:48.396Z,6.38
2023-04-11T21:35:16.360Z,6.29
2023-04-11T21:37:45.505Z,6.25
2023-04-11T21:40:14.457Z,6.22
2023-04-11T21:42:42.386Z,6.15
2023-04-11T21:45:10.515Z,6.12
2023-04-11T21:47:38.613Z,6.08
2023-04-11T21:50:07.784Z,5.98
2023-04-11T21:52:35.675Z,5.93
2023-04-11T21:55:06.438Z,5.89
2023-04-11T21:57:36.114Z,5.86
2023-04-11T22:00:05.607Z,5.84
2023-04-11T22:02:41.127Z,5.82
2023-04-11T22:05:09.798Z,5.81
2023-04-11T22:07:38.555Z,5.77
2023-04-11T22:10:10.040Z,5.76
2023-04-11T22:12:38.936Z,5.76
2023-04-11T22:15:07.826Z,5.75
2023-04-11T22:17:37.336Z,5.75
2023-04-11T22:20:06.924Z,5.72
2023-04-11T22:22:35.459Z,5.72
2023-04-11T22:25:03.614Z,5.68
2023-04-11T22:27:34.652Z,5.71
2023-04-11T22:30:03.115Z,5.72
2023-04-11T22:32:31.161Z,5.74
2023-04-11T22:34:59.967Z,5.77
2023-04-11T22:37:53.839Z,5.77
2023-04-11T22:40:24.653Z,5.79
2023-04-11T22:42:54.152Z,5.79
2023-04-11T22:45:23.428Z,5.84
2023-04-11T22:47:54.353Z,5.90
2023-04-11T22:50:23.641Z,5.93
2023-04-11T22:52:51.644Z,5.95
2023-04-11T22:55:21.307Z,5.99
2023-04-11T22:57:49.877Z,6.04
2023-04-11T23:00:18.891Z,6.10
2023-04-11T23:02:47.339Z,6.11
2023-04-11T23:05:16.896Z,6.08
2023-04-11T23:07:45.239Z,6.11
2023-04-11T23:10:15.375Z,6.09
2023-04-11T23:12:44.558Z,6.06
2023-04-11T23:15:12.578Z,6.06
2023-04-11T23:17:41.521Z,6.07
2023-04-11T23:20:11.217Z,6.09
2023-04-11T23:22:42.243Z,6.12
2023-04-11T23:25:14.205Z,6.09
2023-04-11T23:27:43.663Z,6.05
2023-04-11T23:30:12.813Z,6.05
2023-04-11T23:32:41.584Z,6.07
2023-04-11T23:35:09.628Z,6.10
2023-04-11T23:37:37.682Z,6.06
2023-04-11T23:40:10.574Z,6.08
2023-04-11T23:42:39.656Z,6.10
2023-04-11T23:45:09.042Z,6.09
2023-04-11T23:47:37.460Z,6.03
2023-04-11T23:50:05.979Z,5.98
2023-04-11T23:52:34.475Z,6.01
2023-04-11T23:55:02.553Z,6.02
2023-04-11T23:57:30.538Z,6.01
2023-04-11T23:59:58.411Z,5.97
